TOWK1: Whitewater River, Towanda, KS

Data processed at Wed May 22 2019 23:50


All information presented herein is the property of the government of the United States of America and may be revised or deleted at any time without prior notice.
Dissemination of this information without the expressed written consent of the Public Affairs Office, Tulsa District U.S. Army Corps of Engineers is strictly prohibited.
These data are gathered electronically and, as presented, have not undergone any form of quality control. These data are not guaranteed to be valid or correct.
Go to home page.
Go to station list.
Go to home page.

Downstream station:


Previous Day
Next Day
Current Day
    
SHEF ID:       TOWK1     WHITEWATER R AT TOWANDA, KS
STATION TYPE:  
Regulating: Stage =    22.00, Flow =     7669

               PRECIP     STAGE  RIV-FLOW  BAT-LOAD
                   in        ft       cfs      volt
              Ccp-Rev   Ccp-Rev   Ccp-Rev   Ccp-Rev
(US/Central)
05/22 00:00      0.00     26.06     14682     12.49
05/22 01:00      0.00     25.96     14246     12.49
05/22 02:00      0.00     25.83     13840     12.41
05/22 03:00      0.00     25.73     13567     12.41
05/22 04:00      0.00     25.58     13165     12.41
05/22 05:00      0.00     25.41     12722     12.41
05/22 06:00      0.00     25.27     12365     12.41
05/22 07:00      0.00     25.15     12066     12.41
05/22 08:00      0.00     24.99     11730     12.41
05/22 09:00      0.00     24.82     11394     12.41
05/22 10:00      0.00     24.66     11084     12.41
05/22 11:00      0.00     24.51     10799     12.57
05/22 12:00      0.00     24.36     10520     11.86
05/22 13:00      0.00     24.22     10297     12.65
05/22 14:00      0.00     24.05     10034     12.73
05/22 15:00      0.00     23.90      9806     12.65
05/22 16:00      0.00     23.71      9523     12.65
05/22 17:00      0.00     23.48      9195     12.65
05/22 18:00      0.00     23.26      8936     12.65
05/22 19:00      0.00     22.96      8590     12.57
05/22 20:00      0.00     22.61      8197     12.57
05/22 21:00      0.00     22.12      7767     12.57
05/22 22:00      0.00     21.52      7283     12.49
05/22 23:00      0.00     20.80      6780     12.49